sensor_id;sensor_type;location;lat;lon;timestamp;temperature;humidity
18934;DHT22;9599;53.706;10.384;2024-02-21T00:01:27;9.00;99.90
18934;DHT22;9599;53.706;10.384;2024-02-21T00:03:56;9.10;99.90
18934;DHT22;9599;53.706;10.384;2024-02-21T00:06:24;9.10;99.90
18934;DHT22;9599;53.706;10.384;2024-02-21T00:08:53;9.10;99.90
18934;DHT22;9599;53.706;10.384;2024-02-21T00:11:21;9.10;99.90
18934;DHT22;9599;53.706;10.384;2024-02-21T00:13:49;9.10;99.90
18934;DHT22;9599;53.706;10.384;2024-02-21T00:16:17;9.10;99.90
18934;DHT22;9599;53.706;10.384;2024-02-21T00:18:46;9.10;99.90
18934;DHT22;9599;53.706;10.384;2024-02-21T00:21:15;9.20;99.90
18934;DHT22;9599;53.706;10.384;2024-02-21T00:23:45;9.10;99.90
18934;DHT22;9599;53.706;10.384;2024-02-21T00:26:14;9.20;99.90
18934;DHT22;9599;53.706;10.384;2024-02-21T00:28:42;9.20;99.90
18934;DHT22;9599;53.706;10.384;2024-02-21T00:31:10;9.20;99.90
18934;DHT22;9599;53.706;10.384;2024-02-21T00:33:39;9.20;99.90
18934;DHT22;9599;53.706;10.384;2024-02-21T00:36:07;9.20;99.90
18934;DHT22;9599;53.706;10.384;2024-02-21T00:38:36;9.30;99.90
18934;DHT22;9599;53.706;10.384;2024-02-21T00:41:04;9.20;99.90
18934;DHT22;9599;53.706;10.384;2024-02-21T00:43:32;9.30;99.90
18934;DHT22;9599;53.706;10.384;2024-02-21T00:46:00;9.30;99.90
18934;DHT22;9599;53.706;10.384;2024-02-21T00:48:28;9.30;99.90
18934;DHT22;9599;53.706;10.384;2024-02-21T00:50:56;9.20;99.90
18934;DHT22;9599;53.706;10.384;2024-02-21T00:53:25;9.20;99.90
18934;DHT22;9599;53.706;10.384;2024-02-21T00:55:54;9.20;99.90
18934;DHT22;9599;53.706;10.384;2024-02-21T00:58:23;9.20;99.90
18934;DHT22;9599;53.706;10.384;2024-02-21T01:00:51;9.20;99.90
18934;DHT22;9599;53.706;10.384;2024-02-21T01:03:20;9.20;99.90
18934;DHT22;9599;53.706;10.384;2024-02-21T01:05:48;9.20;99.90
18934;DHT22;9599;53.706;10.384;2024-02-21T01:08:17;9.20;99.90
18934;DHT22;9599;53.706;10.384;2024-02-21T01:10:45;9.10;99.90
18934;DHT22;9599;53.706;10.384;2024-02-21T01:13:15;9.20;99.90
18934;DHT22;9599;53.706;10.384;2024-02-21T01:15:43;9.20;99.90
18934;DHT22;9599;53.706;10.384;2024-02-21T01:18:11;9.20;99.90
18934;DHT22;9599;53.706;10.384;2024-02-21T01:20:39;9.10;99.90
18934;DHT22;9599;53.706;10.384;2024-02-21T01:23:07;9.10;99.90
18934;DHT22;9599;53.706;10.384;2024-02-21T01:25:35;9.10;99.90
18934;DHT22;9599;53.706;10.384;2024-02-21T01:28:04;9.10;99.90
18934;DHT22;9599;53.706;10.384;2024-02-21T01:30:34;9.20;99.90
18934;DHT22;9599;53.706;10.384;2024-02-21T01:33:03;9.10;99.90
18934;DHT22;9599;53.706;10.384;2024-02-21T01:35:31;9.10;99.90
18934;DHT22;9599;53.706;10.384;2024-02-21T01:37:59;9.00;99.90
18934;DHT22;9599;53.706;10.384;2024-02-21T01:40:28;9.00;99.90
18934;DHT22;9599;53.706;10.384;2024-02-21T01:42:56;9.00;99.90
18934;DHT22;9599;53.706;10.384;2024-02-21T01:45:24;9.00;99.90
18934;DHT22;9599;53.706;10.384;2024-02-21T01:47:53;9.00;99.90
18934;DHT22;9599;53.706;10.384;2024-02-21T01:50:22;9.00;99.90
18934;DHT22;9599;53.706;10.384;2024-02-21T01:52:51;9.00;99.90
18934;DHT22;9599;53.706;10.384;2024-02-21T01:55:19;9.00;99.90
18934;DHT22;9599;53.706;10.384;2024-02-21T01:57:48;9.00;99.90
18934;DHT22;9599;53.706;10.384;2024-02-21T02:00:16;9.00;99.90
18934;DHT22;9599;53.706;10.384;2024-02-21T02:02:45;9.10;99.90
18934;DHT22;9599;53.706;10.384;2024-02-21T02:05:15;9.00;99.90
18934;DHT22;9599;53.706;10.384;2024-02-21T02:07:45;9.00;99.90
18934;DHT22;9599;53.706;10.384;2024-02-21T02:10:13;9.00;99.90
18934;DHT22;9599;53.706;10.384;2024-02-21T02:12:42;9.00;99.90
18934;DHT22;9599;53.706;10.384;2024-02-21T02:15:10;9.00;99.90
18934;DHT22;9599;53.706;10.384;2024-02-21T02:17:38;9.00;99.90
18934;DHT22;9599;53.706;10.384;2024-02-21T02:20:08;9.00;99.90
18934;DHT22;9599;53.706;10.384;2024-02-21T02:22:39;9.00;99.90
18934;DHT22;9599;53.706;10.384;2024-02-21T02:25:10;9.00;99.90
18934;DHT22;9599;53.706;10.384;2024-02-21T02:27:42;8.90;99.90
18934;DHT22;9599;53.706;10.384;2024-02-21T02:30:12;8.90;99.90
18934;DHT22;9599;53.706;10.384;2024-02-21T02:32:44;8.90;99.90
18934;DHT22;9599;53.706;10.384;2024-02-21T02:35:12;9.00;99.90
18934;DHT22;9599;53.706;10.384;2024-02-21T02:37:47;8.90;99.90
18934;DHT22;9599;53.706;10.384;2024-02-21T02:40:17;8.90;99.90
18934;DHT22;9599;53.706;10.384;2024-02-21T02:42:46;8.90;99.90
18934;DHT22;9599;53.706;10.384;2024-02-21T02:45:15;8.90;99.90
18934;DHT22;9599;53.706;10.384;2024-02-21T02:47:44;8.90;99.90
18934;DHT22;9599;53.706;10.384;2024-02-21T02:50:13;9.00;99.90
18934;DHT22;9599;53.706;10.384;2024-02-21T02:52:41;9.00;99.90
18934;DHT22;9599;53.706;10.384;2024-02-21T02:55:09;9.00;99.90
18934;DHT22;9599;53.706;10.384;2024-02-21T02:57:39;9.00;99.90
18934;DHT22;9599;53.706;10.384;2024-02-21T03:00:10;9.00;99.90
18934;DHT22;9599;53.706;10.384;2024-02-21T03:02:40;9.10;99.90
18934;DHT22;9599;53.706;10.384;2024-02-21T03:05:12;9.00;99.90
18934;DHT22;9599;53.706;10.384;2024-02-21T03:07:42;9.00;99.90
18934;DHT22;9599;53.706;10.384;2024-02-21T03:10:11;9.00;99.90
18934;DHT22;9599;53.706;10.384;2024-02-21T03:12:41;9.00;99.90
18934;DHT22;9599;53.706;10.384;2024-02-21T03:15:09;9.10;99.90
18934;DHT22;9599;53.706;10.384;2024-02-21T03:17:37;9.00;99.90
18934;DHT22;9599;53.706;10.384;2024-02-21T03:20:07;9.10;99.90
18934;DHT22;9599;53.706;10.384;2024-02-21T03:22:39;9.10;99.90
18934;DHT22;9599;53.706;10.384;2024-02-21T03:25:08;9.10;99.90
18934;DHT22;9599;53.706;10.384;2024-02-21T03:27:36;9.10;99.90
18934;DHT22;9599;53.706;10.384;2024-02-21T03:30:07;9.10;99.90
18934;DHT22;9599;53.706;10.384;2024-02-21T03:32:36;9.10;99.90
18934;DHT22;9599;53.706;10.384;2024-02-21T03:35:05;9.20;99.90
18934;DHT22;9599;53.706;10.384;2024-02-21T03:37:33;9.20;99.90
18934;DHT22;9599;53.706;10.384;2024-02-21T03:40:01;9.20;99.90
18934;DHT22;9599;53.706;10.384;2024-02-21T03:42:29;9.30;99.90
18934;DHT22;9599;53.706;10.384;2024-02-21T03:44:58;9.30;99.90
18934;DHT22;9599;53.706;10.384;2024-02-21T03:47:28;9.30;99.90
18934;DHT22;9599;53.706;10.384;2024-02-21T03:49:56;9.30;99.90
18934;DHT22;9599;53.706;10.384;2024-02-21T03:52:25;9.30;99.90
18934;DHT22;9599;53.706;10.384;2024-02-21T03:54:53;9.30;99.90
18934;DHT22;9599;53.706;10.384;2024-02-21T03:57:21;9.30;99.90
18934;DHT22;9599;53.706;10.384;2024-02-21T03:59:50;9.30;99.90
18934;DHT22;9599;53.706;10.384;2024-02-21T04:02:19;9.30;99.90
18934;DHT22;9599;53.706;10.384;2024-02-21T04:04:48;9.30;99.90
18934;DHT22;9599;53.706;10.384;2024-02-21T04:07:16;9.20;99.90
18934;DHT22;9599;53.706;10.384;2024-02-21T04:09:44;9.20;99.90
18934;DHT22;9599;53.706;10.384;2024-02-21T04:12:12;9.20;99.90
18934;DHT22;9599;53.706;10.384;2024-02-21T04:14:40;9.20;99.90
18934;DHT22;9599;53.706;10.384;2024-02-21T04:17:13;9.20;99.90
18934;DHT22;9599;53.706;10.384;2024-02-21T04:19:41;9.20;99.90
18934;DHT22;9599;53.706;10.384;2024-02-21T04:22:10;9.20;99.90
18934;DHT22;9599;53.706;10.384;2024-02-21T04:24:38;9.20;99.90
18934;DHT22;9599;53.706;10.384;2024-02-21T04:27:06;9.20;99.90
18934;DHT22;9599;53.706;10.384;2024-02-21T04:29:34;9.20;99.90
18934;DHT22;9599;53.706;10.384;2024-02-21T04:32:03;9.20;99.90
18934;DHT22;9599;53.706;10.384;2024-02-21T04:34:31;9.20;99.90
18934;DHT22;9599;53.706;10.384;2024-02-21T04:37:03;9.20;99.90
18934;DHT22;9599;53.706;10.384;2024-02-21T04:39:32;9.20;99.90
18934;DHT22;9599;53.706;10.384;2024-02-21T04:42:00;9.20;99.90
18934;DHT22;9599;53.706;10.384;2024-02-21T04:44:28;9.20;99.90
18934;DHT22;9599;53.706;10.384;2024-02-21T04:46:57;9.20;99.90
18934;DHT22;9599;53.706;10.384;2024-02-21T04:49:25;9.20;99.90
18934;DHT22;9599;53.706;10.384;2024-02-21T04:51:53;9.20;99.90
18934;DHT22;9599;53.706;10.384;2024-02-21T04:54:21;9.20;99.90
18934;DHT22;9599;53.706;10.384;2024-02-21T04:56:51;9.10;99.90
18934;DHT22;9599;53.706;10.384;2024-02-21T04:59:19;9.20;99.90
18934;DHT22;9599;53.706;10.384;2024-02-21T05:01:48;9.10;99.90
18934;DHT22;9599;53.706;10.384;2024-02-21T05:04:16;9.10;99.90
18934;DHT22;9599;53.706;10.384;2024-02-21T05:06:44;9.20;99.90
18934;DHT22;9599;53.706;10.384;2024-02-21T05:09:12;9.10;99.90
18934;DHT22;9599;53.706;10.384;2024-02-21T05:11:40;9.10;99.90
18934;DHT22;9599;53.706;10.384;2024-02-21T05:14:09;9.10;99.90
18934;DHT22;9599;53.706;10.384;2024-02-21T05:16:38;9.10;99.90
18934;DHT22;9599;53.706;10.384;2024-02-21T05:19:07;9.00;99.90
18934;DHT22;9599;53.706;10.384;2024-02-21T05:21:35;9.10;99.90
18934;DHT22;9599;53.706;10.384;2024-02-21T05:24:03;9.10;99.90
18934;DHT22;9599;53.706;10.384;2024-02-21T05:26:32;9.10;99.90
18934;DHT22;9599;53.706;10.384;2024-02-21T05:29:00;9.10;99.90
18934;DHT22;9599;53.706;10.384;2024-02-21T05:31:55;9.10;99.90
18934;DHT22;9599;53.706;10.384;2024-02-21T05:34:24;9.10;99.90
18934;DHT22;9599;53.706;10.384;2024-02-21T05:36:53;9.10;99.90
18934;DHT22;9599;53.706;10.384;2024-02-21T05:39:23;9.00;99.90
18934;DHT22;9599;53.706;10.384;2024-02-21T05:41:51;9.00;99.90
18934;DHT22;9599;53.706;10.384;2024-02-21T05:44:19;9.00;99.90
18934;DHT22;9599;53.706;10.384;2024-02-21T05:46:50;9.10;99.90
18934;DHT22;9599;53.706;10.384;2024-02-21T05:49:19;9.00;99.90
18934;DHT22;9599;53.706;10.384;2024-02-21T05:51:47;9.00;99.90
18934;DHT22;9599;53.706;10.384;2024-02-21T05:54:15;9.00;99.90
18934;DHT22;9599;53.706;10.384;2024-02-21T05:56:46;9.00;99.90
18934;DHT22;9599;53.706;10.384;2024-02-21T05:59:14;9.00;99.90
18934;DHT22;9599;53.706;10.384;2024-02-21T06:01:42;9.00;99.90
18934;DHT22;9599;53.706;10.384;2024-02-21T06:04:12;9.00;99.90
18934;DHT22;9599;53.706;10.384;2024-02-21T06:06:41;9.00;99.90
18934;DHT22;9599;53.706;10.384;2024-02-21T06:09:09;9.00;99.90
18934;DHT22;9599;53.706;10.384;2024-02-21T06:11:37;9.10;99.90
18934;DHT22;9599;53.706;10.384;2024-02-21T06:14:06;9.00;99.90
18934;DHT22;9599;53.706;10.384;2024-02-21T06:16:34;9.10;99.90
18934;DHT22;9599;53.706;10.384;2024-02-21T06:19:02;9.00;99.90
18934;DHT22;9599;53.706;10.384;2024-02-21T06:21:36;9.00;99.90
18934;DHT22;9599;53.706;10.384;2024-02-21T06:24:05;9.00;99.90
18934;DHT22;9599;53.706;10.384;2024-02-21T06:26:33;9.00;99.90
18934;DHT22;9599;53.706;10.384;2024-02-21T06:29:01;9.00;99.90
18934;DHT22;9599;53.706;10.384;2024-02-21T06:31:29;9.00;99.90
18934;DHT22;9599;53.706;10.384;2024-02-21T06:33:59;9.00;99.90
18934;DHT22;9599;53.706;10.384;2024-02-21T06:36:27;9.00;99.90
18934;DHT22;9599;53.706;10.384;2024-02-21T06:38:56;9.00;99.90
18934;DHT22;9599;53.706;10.384;2024-02-21T06:41:24;9.00;99.90
18934;DHT22;9599;53.706;10.384;2024-02-21T06:43:53;9.00;99.90
18934;DHT22;9599;53.706;10.384;2024-02-21T06:46:24;9.00;99.90
18934;DHT22;9599;53.706;10.384;2024-02-21T06:48:54;9.10;99.90
18934;DHT22;9599;53.706;10.384;2024-02-21T06:51:23;9.00;99.90
18934;DHT22;9599;53.706;10.384;2024-02-21T06:53:52;9.10;99.90
18934;DHT22;9599;53.706;10.384;2024-02-21T06:56:24;9.10;99.90
18934;DHT22;9599;53.706;10.384;2024-02-21T06:58:55;9.00;99.90
18934;DHT22;9599;53.706;10.384;2024-02-21T07:01:24;9.00;99.90
18934;DHT22;9599;53.706;10.384;2024-02-21T07:03:52;9.00;99.90
18934;DHT22;9599;53.706;10.384;2024-02-21T07:06:20;9.00;99.90
18934;DHT22;9599;53.706;10.384;2024-02-21T07:08:48;9.00;99.90
18934;DHT22;9599;53.706;10.384;2024-02-21T07:11:16;9.00;99.90
18934;DHT22;9599;53.706;10.384;2024-02-21T07:13:46;9.00;99.90
18934;DHT22;9599;53.706;10.384;2024-02-21T07:16:14;9.10;99.90
18934;DHT22;9599;53.706;10.384;2024-02-21T07:18:42;9.10;99.90
18934;DHT22;9599;53.706;10.384;2024-02-21T07:21:11;9.10;99.90
18934;DHT22;9599;53.706;10.384;2024-02-21T07:23:40;9.10;99.90
18934;DHT22;9599;53.706;10.384;2024-02-21T07:26:09;9.20;99.90
18934;DHT22;9599;53.706;10.384;2024-02-21T07:28:37;9.20;99.90
18934;DHT22;9599;53.706;10.384;2024-02-21T07:31:07;9.20;99.90
18934;DHT22;9599;53.706;10.384;2024-02-21T07:33:37;9.20;99.90
18934;DHT22;9599;53.706;10.384;2024-02-21T07:36:07;9.20;99.90
18934;DHT22;9599;53.706;10.384;2024-02-21T07:38:36;9.20;99.90
18934;DHT22;9599;53.706;10.384;2024-02-21T07:41:06;9.20;99.90
18934;DHT22;9599;53.706;10.384;2024-02-21T07:43:34;9.20;99.90
18934;DHT22;9599;53.706;10.384;2024-02-21T07:46:03;9.20;99.90
18934;DHT22;9599;53.706;10.384;2024-02-21T07:48:34;9.20;99.90
18934;DHT22;9599;53.706;10.384;2024-02-21T07:51:04;9.20;99.90
18934;DHT22;9599;53.706;10.384;2024-02-21T07:53:34;9.20;99.90
18934;DHT22;9599;53.706;10.384;2024-02-21T07:56:03;9.20;99.90
18934;DHT22;9599;53.706;10.384;2024-02-21T07:58:33;9.30;99.90
18934;DHT22;9599;53.706;10.384;2024-02-21T08:01:03;9.30;99.90
18934;DHT22;9599;53.706;10.384;2024-02-21T08:03:33;9.30;99.90
18934;DHT22;9599;53.706;10.384;2024-02-21T08:06:04;9.30;99.90
18934;DHT22;9599;53.706;10.384;2024-02-21T08:08:34;9.30;99.90
18934;DHT22;9599;53.706;10.384;2024-02-21T08:11:02;9.40;99.90
18934;DHT22;9599;53.706;10.384;2024-02-21T08:13:30;9.50;99.90
18934;DHT22;9599;53.706;10.384;2024-02-21T08:15:58;9.50;99.90
18934;DHT22;9599;53.706;10.384;2024-02-21T08:18:27;9.50;99.90
18934;DHT22;9599;53.706;10.384;2024-02-21T08:20:56;9.50;99.90
18934;DHT22;9599;53.706;10.384;2024-02-21T08:23:24;9.60;99.90
18934;DHT22;9599;53.706;10.384;2024-02-21T08:25:52;9.60;99.90
18934;DHT22;9599;53.706;10.384;2024-02-21T08:28:21;9.50;99.90
18934;DHT22;9599;53.706;10.384;2024-02-21T08:30:49;9.60;99.90
18934;DHT22;9599;53.706;10.384;2024-02-21T08:33:17;9.70;99.90
18934;DHT22;9599;53.706;10.384;2024-02-21T08:35:46;9.70;99.90
18934;DHT22;9599;53.706;10.384;2024-02-21T08:38:15;9.70;99.90
18934;DHT22;9599;53.706;10.384;2024-02-21T08:40:43;9.70;99.90
18934;DHT22;9599;53.706;10.384;2024-02-21T08:43:11;9.70;99.90
18934;DHT22;9599;53.706;10.384;2024-02-21T08:45:39;9.90;99.90
18934;DHT22;9599;53.706;10.384;2024-02-21T08:48:07;10.00;99.90
18934;DHT22;9599;53.706;10.384;2024-02-21T08:50:36;9.90;99.90
18934;DHT22;9599;53.706;10.384;2024-02-21T08:53:05;9.90;99.90
18934;DHT22;9599;53.706;10.384;2024-02-21T08:55:35;9.90;99.90
18934;DHT22;9599;53.706;10.384;2024-02-21T08:58:03;9.80;99.90
18934;DHT22;9599;53.706;10.384;2024-02-21T09:00:31;9.80;99.90
18934;DHT22;9599;53.706;10.384;2024-02-21T09:03:00;9.90;99.90
18934;DHT22;9599;53.706;10.384;2024-02-21T09:05:28;10.00;99.90
18934;DHT22;9599;53.706;10.384;2024-02-21T09:07:56;10.10;99.90
18934;DHT22;9599;53.706;10.384;2024-02-21T09:10:24;10.30;99.90
18934;DHT22;9599;53.706;10.384;2024-02-21T09:12:54;10.20;99.90
18934;DHT22;9599;53.706;10.384;2024-02-21T09:15:22;10.20;99.90
18934;DHT22;9599;53.706;10.384;2024-02-21T09:17:51;10.10;99.90
18934;DHT22;9599;53.706;10.384;2024-02-21T09:20:19;10.10;99.90
18934;DHT22;9599;53.706;10.384;2024-02-21T09:22:47;10.10;99.90
18934;DHT22;9599;53.706;10.384;2024-02-21T09:25:15;10.10;99.90
18934;DHT22;9599;53.706;10.384;2024-02-21T09:27:44;10.20;99.90
18934;DHT22;9599;53.706;10.384;2024-02-21T09:30:14;10.30;99.90
18934;DHT22;9599;53.706;10.384;2024-02-21T09:32:42;10.20;99.90
18934;DHT22;9599;53.706;10.384;2024-02-21T09:35:10;10.30;99.90
18934;DHT22;9599;53.706;10.384;2024-02-21T09:37:39;10.30;99.90
18934;DHT22;9599;53.706;10.384;2024-02-21T09:40:08;10.40;99.90
18934;DHT22;9599;53.706;10.384;2024-02-21T09:42:38;10.50;99.90
18934;DHT22;9599;53.706;10.384;2024-02-21T09:45:09;10.60;99.90
18934;DHT22;9599;53.706;10.384;2024-02-21T09:48:04;10.50;99.90
18934;DHT22;9599;53.706;10.384;2024-02-21T09:50:34;10.40;99.90
18934;DHT22;9599;53.706;10.384;2024-02-21T09:53:03;10.40;99.90
18934;DHT22;9599;53.706;10.384;2024-02-21T09:55:33;10.30;99.90
18934;DHT22;9599;53.706;10.384;2024-02-21T09:58:02;10.30;99.90
18934;DHT22;9599;53.706;10.384;2024-02-21T10:00:31;10.30;99.90
18934;DHT22;9599;53.706;10.384;2024-02-21T10:03:01;10.20;99.90
18934;DHT22;9599;53.706;10.384;2024-02-21T10:05:32;10.30;99.90
18934;DHT22;9599;53.706;10.384;2024-02-21T10:08:00;10.20;99.90
18934;DHT22;9599;53.706;10.384;2024-02-21T10:10:29;10.20;99.90
18934;DHT22;9599;53.706;10.384;2024-02-21T10:12:57;10.20;99.90
18934;DHT22;9599;53.706;10.384;2024-02-21T10:15:26;10.10;99.90
18934;DHT22;9599;53.706;10.384;2024-02-21T10:17:59;10.20;99.90
18934;DHT22;9599;53.706;10.384;2024-02-21T10:20:29;10.10;99.90
18934;DHT22;9599;53.706;10.384;2024-02-21T10:23:01;10.00;99.90
18934;DHT22;9599;53.706;10.384;2024-02-21T10:25:30;9.90;99.90
18934;DHT22;9599;53.706;10.384;2024-02-21T10:27:58;10.00;99.90
18934;DHT22;9599;53.706;10.384;2024-02-21T10:30:27;10.00;99.90
18934;DHT22;9599;53.706;10.384;2024-02-21T10:32:55;10.10;99.90
18934;DHT22;9599;53.706;10.384;2024-02-21T10:35:29;10.10;99.90
18934;DHT22;9599;53.706;10.384;2024-02-21T10:37:58;10.00;99.90
18934;DHT22;9599;53.706;10.384;2024-02-21T10:40:27;10.00;99.90
18934;DHT22;9599;53.706;10.384;2024-02-21T10:42:58;10.10;99.90
18934;DHT22;9599;53.706;10.384;2024-02-21T10:45:30;10.10;99.90
18934;DHT22;9599;53.706;10.384;2024-02-21T10:48:08;10.10;99.90
18934;DHT22;9599;53.706;10.384;2024-02-21T10:50:47;10.00;99.90
18934;DHT22;9599;53.706;10.384;2024-02-21T10:53:28;10.00;99.90
18934;DHT22;9599;53.706;10.384;2024-02-21T10:56:02;9.90;99.90
18934;DHT22;9599;53.706;10.384;2024-02-21T10:58:39;9.90;99.90
18934;DHT22;9599;53.706;10.384;2024-02-21T11:01:08;9.90;99.90
18934;DHT22;9599;53.706;10.384;2024-02-21T11:03:37;9.90;99.90
18934;DHT22;9599;53.706;10.384;2024-02-21T11:06:07;9.90;99.90
18934;DHT22;9599;53.706;10.384;2024-02-21T11:08:35;9.90;99.90
18934;DHT22;9599;53.706;10.384;2024-02-21T11:11:04;9.80;99.90
18934;DHT22;9599;53.706;10.384;2024-02-21T11:13:35;9.80;99.90
18934;DHT22;9599;53.706;10.384;2024-02-21T11:16:10;9.80;99.90
18934;DHT22;9599;53.706;10.384;2024-02-21T11:18:39;9.80;99.90
18934;DHT22;9599;53.706;10.384;2024-02-21T11:21:08;9.80;99.90
18934;DHT22;9599;53.706;10.384;2024-02-21T11:23:36;9.80;99.90
18934;DHT22;9599;53.706;10.384;2024-02-21T11:26:06;9.90;99.90
18934;DHT22;9599;53.706;10.384;2024-02-21T11:28:34;9.90;99.90
18934;DHT22;9599;53.706;10.384;2024-02-21T11:31:11;10.00;99.90
18934;DHT22;9599;53.706;10.384;2024-02-21T11:33:40;10.00;99.90
18934;DHT22;9599;53.706;10.384;2024-02-21T11:36:10;9.90;99.90
18934;DHT22;9599;53.706;10.384;2024-02-21T11:38:38;9.90;99.90
18934;DHT22;9599;53.706;10.384;2024-02-21T11:41:08;9.90;99.90
18934;DHT22;9599;53.706;10.384;2024-02-21T11:43:40;9.90;99.90
18934;DHT22;9599;53.706;10.384;2024-02-21T11:46:08;9.90;99.90
18934;DHT22;9599;53.706;10.384;2024-02-21T11:48:37;9.90;99.90
18934;DHT22;9599;53.706;10.384;2024-02-21T11:51:05;9.90;99.90
18934;DHT22;9599;53.706;10.384;2024-02-21T11:53:34;9.90;99.90
18934;DHT22;9599;53.706;10.384;2024-02-21T11:56:14;9.90;99.90
18934;DHT22;9599;53.706;10.384;2024-02-21T11:58:42;9.90;99.90
18934;DHT22;9599;53.706;10.384;2024-02-21T12:01:10;9.90;99.90
18934;DHT22;9599;53.706;10.384;2024-02-21T12:03:39;9.90;99.90
18934;DHT22;9599;53.706;10.384;2024-02-21T12:06:08;9.90;99.90
18934;DHT22;9599;53.706;10.384;2024-02-21T12:08:44;9.80;99.90
18934;DHT22;9599;53.706;10.384;2024-02-21T12:11:18;9.80;99.90
18934;DHT22;9599;53.706;10.384;2024-02-21T12:13:46;9.80;99.90
18934;DHT22;9599;53.706;10.384;2024-02-21T12:16:15;9.70;99.90
18934;DHT22;9599;53.706;10.384;2024-02-21T12:18:46;9.70;99.90
18934;DHT22;9599;53.706;10.384;2024-02-21T12:21:14;9.70;99.90
18934;DHT22;9599;53.706;10.384;2024-02-21T12:23:45;9.70;99.90
18934;DHT22;9599;53.706;10.384;2024-02-21T12:26:14;9.70;99.90
18934;DHT22;9599;53.706;10.384;2024-02-21T12:28:42;9.60;99.90
18934;DHT22;9599;53.706;10.384;2024-02-21T12:31:13;9.60;99.90
18934;DHT22;9599;53.706;10.384;2024-02-21T12:33:41;9.60;99.90
18934;DHT22;9599;53.706;10.384;2024-02-21T12:36:09;9.60;99.90
18934;DHT22;9599;53.706;10.384;2024-02-21T12:38:37;9.60;99.90
18934;DHT22;9599;53.706;10.384;2024-02-21T12:41:07;9.50;99.90
18934;DHT22;9599;53.706;10.384;2024-02-21T12:43:35;9.60;99.90
18934;DHT22;9599;53.706;10.384;2024-02-21T12:46:05;9.50;99.90
18934;DHT22;9599;53.706;10.384;2024-02-21T12:48:34;9.50;99.90
18934;DHT22;9599;53.706;10.384;2024-02-21T12:51:02;9.50;99.90
18934;DHT22;9599;53.706;10.384;2024-02-21T12:53:31;9.50;99.90
18934;DHT22;9599;53.706;10.384;2024-02-21T12:56:00;9.60;99.90
18934;DHT22;9599;53.706;10.384;2024-02-21T12:58:30;9.60;99.90
18934;DHT22;9599;53.706;10.384;2024-02-21T13:00:59;9.50;99.90
18934;DHT22;9599;53.706;10.384;2024-02-21T13:03:27;9.50;99.90
18934;DHT22;9599;53.706;10.384;2024-02-21T13:05:59;9.50;99.90
18934;DHT22;9599;53.706;10.384;2024-02-21T13:08:28;9.50;99.90
18934;DHT22;9599;53.706;10.384;2024-02-21T13:10:56;9.50;99.90
18934;DHT22;9599;53.706;10.384;2024-02-21T13:13:24;9.40;99.90
18934;DHT22;9599;53.706;10.384;2024-02-21T13:15:54;9.40;99.90
18934;DHT22;9599;53.706;10.384;2024-02-21T13:18:22;9.40;99.90
18934;DHT22;9599;53.706;10.384;2024-02-21T13:20:50;9.30;99.90
18934;DHT22;9599;53.706;10.384;2024-02-21T13:23:18;9.30;99.90
18934;DHT22;9599;53.706;10.384;2024-02-21T13:25:48;9.30;99.90
18934;DHT22;9599;53.706;10.384;2024-02-21T13:28:16;9.30;99.90
18934;DHT22;9599;53.706;10.384;2024-02-21T13:30:44;9.30;99.90
18934;DHT22;9599;53.706;10.384;2024-02-21T13:33:13;9.20;99.90
18934;DHT22;9599;53.706;10.384;2024-02-21T13:35:43;9.30;99.90
18934;DHT22;9599;53.706;10.384;2024-02-21T13:38:11;9.20;99.90
18934;DHT22;9599;53.706;10.384;2024-02-21T13:40:40;9.20;99.90
18934;DHT22;9599;53.706;10.384;2024-02-21T13:43:09;9.20;99.90
18934;DHT22;9599;53.706;10.384;2024-02-21T13:45:38;9.20;99.90
18934;DHT22;9599;53.706;10.384;2024-02-21T13:48:08;9.20;99.90
18934;DHT22;9599;53.706;10.384;2024-02-21T13:50:40;9.20;99.90
18934;DHT22;9599;53.706;10.384;2024-02-21T13:53:10;9.30;99.90
18934;DHT22;9599;53.706;10.384;2024-02-21T13:55:38;9.30;99.90
18934;DHT22;9599;53.706;10.384;2024-02-21T13:58:07;9.30;99.90
18934;DHT22;9599;53.706;10.384;2024-02-21T14:00:35;9.40;99.90
18934;DHT22;9599;53.706;10.384;2024-02-21T14:03:04;9.40;99.90
18934;DHT22;9599;53.706;10.384;2024-02-21T14:05:32;9.50;99.90
18934;DHT22;9599;53.706;10.384;2024-02-21T14:08:02;9.50;99.90
18934;DHT22;9599;53.706;10.384;2024-02-21T14:10:32;9.50;99.90
18934;DHT22;9599;53.706;10.384;2024-02-21T14:13:00;9.60;99.90
18934;DHT22;9599;53.706;10.384;2024-02-21T14:15:28;9.60;99.90
18934;DHT22;9599;53.706;10.384;2024-02-21T14:17:57;9.60;99.90
18934;DHT22;9599;53.706;10.384;2024-02-21T14:20:25;9.60;99.90
18934;DHT22;9599;53.706;10.384;2024-02-21T14:22:53;9.60;99.90
18934;DHT22;9599;53.706;10.384;2024-02-21T14:25:23;9.60;99.90
18934;DHT22;9599;53.706;10.384;2024-02-21T14:27:51;9.60;99.90
18934;DHT22;9599;53.706;10.384;2024-02-21T14:30:19;9.60;99.90
18934;DHT22;9599;53.706;10.384;2024-02-21T14:32:47;9.70;99.90
18934;DHT22;9599;53.706;10.384;2024-02-21T14:35:15;9.70;99.90
18934;DHT22;9599;53.706;10.384;2024-02-21T14:37:43;9.80;99.90
18934;DHT22;9599;53.706;10.384;2024-02-21T14:40:12;9.80;99.90
18934;DHT22;9599;53.706;10.384;2024-02-21T14:42:42;9.80;99.90
18934;DHT22;9599;53.706;10.384;2024-02-21T14:45:11;9.80;99.90
18934;DHT22;9599;53.706;10.384;2024-02-21T14:47:41;9.80;99.90
18934;DHT22;9599;53.706;10.384;2024-02-21T14:50:09;9.90;99.90
18934;DHT22;9599;53.706;10.384;2024-02-21T14:52:38;9.90;99.90
18934;DHT22;9599;53.706;10.384;2024-02-21T14:55:06;9.90;99.90
18934;DHT22;9599;53.706;10.384;2024-02-21T14:57:35;9.90;99.90
18934;DHT22;9599;53.706;10.384;2024-02-21T15:00:08;10.00;99.90
18934;DHT22;9599;53.706;10.384;2024-02-21T15:02:38;9.90;99.90
18934;DHT22;9599;53.706;10.384;2024-02-21T15:05:07;9.90;99.90
18934;DHT22;9599;53.706;10.384;2024-02-21T15:07:35;9.90;99.90
18934;DHT22;9599;53.706;10.384;2024-02-21T15:10:04;9.90;99.90
18934;DHT22;9599;53.706;10.384;2024-02-21T15:12:32;9.90;99.90
18934;DHT22;9599;53.706;10.384;2024-02-21T15:15:00;9.90;99.90
18934;DHT22;9599;53.706;10.384;2024-02-21T15:17:30;9.90;99.90
18934;DHT22;9599;53.706;10.384;2024-02-21T15:19:58;9.80;99.90
18934;DHT22;9599;53.706;10.384;2024-02-21T15:22:28;9.80;99.90
18934;DHT22;9599;53.706;10.384;2024-02-21T15:24:56;9.80;99.90
18934;DHT22;9599;53.706;10.384;2024-02-21T15:27:24;9.80;99.90
18934;DHT22;9599;53.706;10.384;2024-02-21T15:29:53;9.70;99.90
18934;DHT22;9599;53.706;10.384;2024-02-21T15:32:21;9.70;99.90
18934;DHT22;9599;53.706;10.384;2024-02-21T15:34:50;9.70;99.90
18934;DHT22;9599;53.706;10.384;2024-02-21T15:37:19;9.70;99.90
18934;DHT22;9599;53.706;10.384;2024-02-21T15:39:47;9.70;99.90
18934;DHT22;9599;53.706;10.384;2024-02-21T15:42:15;9.50;99.90
18934;DHT22;9599;53.706;10.384;2024-02-21T15:44:43;9.60;99.90
18934;DHT22;9599;53.706;10.384;2024-02-21T15:47:11;9.50;99.90
18934;DHT22;9599;53.706;10.384;2024-02-21T15:49:39;9.50;99.90
18934;DHT22;9599;53.706;10.384;2024-02-21T15:52:10;9.50;99.90
18934;DHT22;9599;53.706;10.384;2024-02-21T15:54:38;9.50;99.90
18934;DHT22;9599;53.706;10.384;2024-02-21T15:57:06;9.50;99.90